TAF LEAS
LEAS 082000Z 0821/0921 27009KT 9999 SCT030 BKN045 TX14/0917Z TN08/0907Z TEMPO 0821/0901 27019G32KT TEMPO 0904/0918 27019G32KT TEMPO 0821/0921 3000 RA SHRA BKN010 SCT030TCU PROB40 TEMPO 0821/0824 3000 TS SHRAGR BKN010 SCT030CB=
METAR LEAS
LEAS 082230Z 26017KT 230V290 9000 -RA FEW016 SCT025 BKN038 08/06 Q1019 RESHRA RETS TEMPO 3000 SHRA SCT025TCU=
LEAS 082200Z 28018G31KT 240V300 1200 R29/1900N R11/1900N +SHRA TS SCT015CB BKN020 BKN027 07/06 Q1019 TEMPO NSW=
LEAS 082130Z 27012KT 5000 RA FEW015 SCT020 BKN027 08/06 Q1018 TEMPO 3000 SHRA SCT025TCU=
LEAS 082100Z 26012KT 9000 -RA FEW014 SCT018 BKN033 07/06 Q1018 RERA TEMPO SHRA SCT025TCU=
COR LEAS 082030Z 26013G25KT 3000 RA SCT020 BKN043 07/06 Q1018 TEMPO SHRA SCT025TCU=
WC LEAS
WS LEAS
WV LEAS